EIN991 EINN-EIDW
Flight info
| Callsign | EIN991 |
|---|---|
| Flight time | N/A |
| Altitude | 15000 |
| Route | AGINI3A AGINI DCT OSGAR OSGAR4L |
| Aircraft | A320/M-SDE3FGHIRWY/LB1 |
Departure
| Time | 2026-05-08 14:43 |
|---|---|
| Airport | Shannon Airport (EINN) |
Arrival
| Time | N/A |
|---|---|
| Airport | Dublin Airport (EIDW) |
| Time | Latitude | Longitude | Altitude | Speed | Heading |
|---|---|---|---|---|---|
| 2026-05-08 14:20 | 52.69194 | -8.91616 | 25 ft | 0 kts | 220° |
| 2026-05-08 14:33 | 52.69199 | -8.91608 | 24 ft | 2 kts | 220° |
| 2026-05-08 14:33 | 52.69213 | -8.91590 | 28 ft | 3 kts | 224° |
| 2026-05-08 14:33 | 52.69224 | -8.91566 | 28 ft | 3 kts | 257° |
| 2026-05-08 14:33 | 52.69224 | -8.91536 | 27 ft | 3 kts | 292° |
| 2026-05-08 14:34 | 52.69215 | -8.91509 | 25 ft | 2 kts | 310° |
| 2026-05-08 14:34 | 52.69210 | -8.91500 | 27 ft | 0 kts | 310° |
| 2026-05-08 14:34 | 52.69210 | -8.91499 | 27 ft | 0 kts | 310° |
| 2026-05-08 14:37 | 52.69210 | -8.91500 | 27 ft | 0 kts | 310° |
| 2026-05-08 14:37 | 52.69215 | -8.91510 | 25 ft | 1 kts | 310° |
| 2026-05-08 14:37 | 52.69221 | -8.91520 | 23 ft | 3 kts | 310° |
| 2026-05-08 14:38 | 52.69253 | -8.91582 | 23 ft | 12 kts | 310° |
| 2026-05-08 14:38 | 52.69349 | -8.91739 | 23 ft | 17 kts | 335° |
| 2026-05-08 14:38 | 52.69432 | -8.91842 | 23 ft | 19 kts | 300° |
| 2026-05-08 14:38 | 52.69465 | -8.91994 | 23 ft | 21 kts | 283° |
| 2026-05-08 14:39 | 52.69513 | -8.92265 | 23 ft | 28 kts | 295° |
| 2026-05-08 14:39 | 52.69655 | -8.92526 | 23 ft | 30 kts | 315° |
| 2026-05-08 14:39 | 52.69801 | -8.92767 | 24 ft | 30 kts | 314° |
| 2026-05-08 14:39 | 52.69907 | -8.92941 | 34 ft | 7 kts | 313° |
| 2026-05-08 14:40 | 52.69915 | -8.92957 | 36 ft | 0 kts | 306° |
| 2026-05-08 14:40 | 52.69919 | -8.92975 | 38 ft | 5 kts | 289° |
| 2026-05-08 14:40 | 52.69923 | -8.93029 | 40 ft | 0 kts | 273° |
| 2026-05-08 14:41 | 52.69908 | -8.93107 | 40 ft | 10 kts | 241° |
| 2026-05-08 14:41 | 52.69860 | -8.93222 | 40 ft | 18 kts | 231° |
| 2026-05-08 14:41 | 52.69744 | -8.93463 | 40 ft | 35 kts | 232° |
| 2026-05-08 14:41 | 52.69566 | -8.93842 | 44 ft | 43 kts | 233° |
| 2026-05-08 14:42 | 52.69423 | -8.94151 | 49 ft | 24 kts | 233° |
| 2026-05-08 14:42 | 52.69341 | -8.94327 | 49 ft | 6 kts | 181° |
| 2026-05-08 14:42 | 52.69337 | -8.94279 | 49 ft | 6 kts | 26° |
| 2026-05-08 14:42 | 52.69402 | -8.94190 | 50 ft | 20 kts | 46° |
| 2026-05-08 14:43 | 52.69676 | -8.93606 | 41 ft | 110 kts | 52° |
| 2026-05-08 14:43 | 52.70281 | -8.92340 | 297 ft | 159 kts | 51° |
| 2026-05-08 14:43 | 52.71033 | -8.90815 | 969 ft | 183 kts | 47° |
| 2026-05-08 14:43 | 52.72038 | -8.89379 | 1798 ft | 203 kts | 28° |
| 2026-05-08 14:44 | 52.73414 | -8.88520 | 2664 ft | 219 kts | 21° |
| 2026-05-08 14:44 | 52.74914 | -8.87503 | 3592 ft | 240 kts | 24° |
| 2026-05-08 14:44 | 52.76477 | -8.86356 | 4735 ft | 250 kts | 25° |
| 2026-05-08 14:44 | 52.78071 | -8.85171 | 5940 ft | 259 kts | 25° |
| 2026-05-08 14:45 | 52.79741 | -8.83936 | 7087 ft | 267 kts | 25° |
| 2026-05-08 14:45 | 52.81465 | -8.82671 | 8208 ft | 276 kts | 25° |
| 2026-05-08 14:45 | 52.83246 | -8.81369 | 9350 ft | 284 kts | 26° |
| 2026-05-08 14:45 | 52.85083 | -8.80036 | 10376 ft | 296 kts | 25° |
| 2026-05-08 14:46 | 52.87051 | -8.78614 | 11012 ft | 319 kts | 24° |
| 2026-05-08 14:46 | 52.89120 | -8.77123 | 11917 ft | 329 kts | 24° |
| 2026-05-08 14:46 | 52.91245 | -8.75593 | 12958 ft | 336 kts | 23° |
| 2026-05-08 14:46 | 52.93415 | -8.74030 | 13971 ft | 344 kts | 23° |
| 2026-05-08 14:47 | 52.95628 | -8.72432 | 14713 ft | 350 kts | 23° |
| 2026-05-08 14:47 | 52.97871 | -8.70810 | 14983 ft | 352 kts | 23° |
| 2026-05-08 14:47 | 53.00104 | -8.69190 | 15072 ft | 345 kts | 23° |
| 2026-05-08 14:47 | 53.02250 | -8.67633 | 15086 ft | 328 kts | 23° |
| 2026-05-08 14:48 | 53.04297 | -8.66147 | 15081 ft | 315 kts | 22° |
| 2026-05-08 14:48 | 53.06293 | -8.64698 | 15088 ft | 312 kts | 22° |
| 2026-05-08 14:48 | 53.08276 | -8.63258 | 15089 ft | 311 kts | 23° |
| 2026-05-08 14:48 | 53.10264 | -8.61814 | 15089 ft | 311 kts | 22° |
| 2026-05-08 14:49 | 53.12189 | -8.60199 | 15087 ft | 311 kts | 35° |
| 2026-05-08 14:49 | 53.13737 | -8.57710 | 15090 ft | 310 kts | 55° |
| 2026-05-08 14:49 | 53.14699 | -8.54528 | 15087 ft | 307 kts | 75° |
| 2026-05-08 14:49 | 53.14994 | -8.51041 | 15090 ft | 303 kts | 95° |
| 2026-05-08 14:50 | 53.14769 | -8.47565 | 15089 ft | 302 kts | 100° |
| 2026-05-08 14:50 | 53.14502 | -8.44107 | 15088 ft | 302 kts | 100° |
| 2026-05-08 14:50 | 53.14233 | -8.40637 | 15086 ft | 302 kts | 100° |
| 2026-05-08 14:50 | 53.13964 | -8.37167 | 15090 ft | 302 kts | 100° |
| 2026-05-08 14:51 | 53.13697 | -8.33734 | 15090 ft | 302 kts | 100° |
| 2026-05-08 14:51 | 53.13426 | -8.30268 | 15094 ft | 303 kts | 100° |
| 2026-05-08 14:51 | 53.13156 | -8.26790 | 15096 ft | 303 kts | 100° |
| 2026-05-08 14:51 | 53.12886 | -8.23312 | 15097 ft | 303 kts | 100° |
| 2026-05-08 14:52 | 53.12616 | -8.19841 | 15098 ft | 303 kts | 100° |
| 2026-05-08 14:52 | 53.12334 | -8.12847 | 15090 ft | 307 kts | 83° |
| 2026-05-08 14:52 | 53.12752 | -8.09353 | 15091 ft | 307 kts | 80° |
| 2026-05-08 14:53 | 53.13185 | -8.05871 | 15096 ft | 308 kts | 80° |
| 2026-05-08 14:53 | 53.13623 | -8.02374 | 15096 ft | 308 kts | 80° |
| 2026-05-08 14:53 | 53.14060 | -7.98883 | 15097 ft | 308 kts | 80° |
| 2026-05-08 14:53 | 53.14496 | -7.95391 | 15093 ft | 308 kts | 80° |
| 2026-05-08 14:54 | 53.14931 | -7.91895 | 15092 ft | 308 kts | 81° |
| 2026-05-08 14:54 | 53.15365 | -7.88396 | 15094 ft | 308 kts | 81° |
| 2026-05-08 14:54 | 53.15800 | -7.84896 | 15095 ft | 308 kts | 81° |
| 2026-05-08 14:54 | 53.16231 | -7.81404 | 15097 ft | 308 kts | 81° |
| 2026-05-08 14:55 | 53.16661 | -7.77904 | 15098 ft | 308 kts | 81° |
| 2026-05-08 14:55 | 53.17089 | -7.74402 | 15099 ft | 308 kts | 81° |
| 2026-05-08 14:55 | 53.17515 | -7.70896 | 15099 ft | 308 kts | 81° |
| 2026-05-08 14:55 | 53.17940 | -7.67393 | 15095 ft | 308 kts | 81° |
| 2026-05-08 14:56 | 53.18369 | -7.63872 | 15010 ft | 316 kts | 81° |
| 2026-05-08 14:56 | 53.18807 | -7.60257 | 14615 ft | 319 kts | 81° |
| 2026-05-08 14:56 | 53.19248 | -7.56623 | 14188 ft | 319 kts | 80° |
| 2026-05-08 14:56 | 53.19688 | -7.52996 | 13750 ft | 319 kts | 80° |
| 2026-05-08 14:57 | 53.20125 | -7.49376 | 13308 ft | 317 kts | 80° |
| 2026-05-08 14:57 | 53.20558 | -7.45788 | 12881 ft | 315 kts | 80° |
| 2026-05-08 14:57 | 53.20985 | -7.42225 | 12449 ft | 312 kts | 81° |
| 2026-05-08 14:57 | 53.21406 | -7.38693 | 12006 ft | 309 kts | 80° |
| 2026-05-08 14:58 | 53.21821 | -7.35184 | 11584 ft | 306 kts | 81° |
| 2026-05-08 14:58 | 53.22233 | -7.31712 | 11150 ft | 304 kts | 81° |
| 2026-05-08 14:58 | 53.22641 | -7.28269 | 10579 ft | 305 kts | 80° |
| 2026-05-08 14:58 | 53.23050 | -7.24792 | 10132 ft | 302 kts | 80° |
| 2026-05-08 14:59 | 53.23449 | -7.21414 | 9900 ft | 291 kts | 81° |
| 2026-05-08 14:59 | 53.24208 | -7.14946 | 9399 ft | 282 kts | 80° |
| 2026-05-08 14:59 | 53.24582 | -7.11735 | 9068 ft | 281 kts | 80° |
| 2026-05-08 15:00 | 53.24952 | -7.08538 | 8726 ft | 279 kts | 80° |
| 2026-05-08 15:00 | 53.25318 | -7.05360 | 8381 ft | 278 kts | 80° |
| 2026-05-08 15:00 | 53.25676 | -7.02255 | 8054 ft | 273 kts | 80° |
| 2026-05-08 15:00 | 53.26031 | -6.99183 | 7718 ft | 266 kts | 81° |
| 2026-05-08 15:01 | 53.26407 | -6.96193 | 7391 ft | 261 kts | 74° |
| 2026-05-08 15:01 | 53.27154 | -6.93473 | 7064 ft | 257 kts | 59° |
| 2026-05-08 15:01 | 53.28132 | -6.91016 | 6741 ft | 252 kts | 58° |
| 2026-05-08 15:01 | 53.29092 | -6.88596 | 6421 ft | 247 kts | 57° |
| 2026-05-08 15:02 | 53.30042 | -6.86182 | 6073 ft | 243 kts | 58° |
| 2026-05-08 15:02 | 53.30950 | -6.83870 | 5729 ft | 239 kts | 58° |
| 2026-05-08 15:02 | 53.31856 | -6.81556 | 5396 ft | 236 kts | 58° |
| 2026-05-08 15:02 | 53.32751 | -6.79266 | 5061 ft | 234 kts | 58° |
| 2026-05-08 15:03 | 53.33639 | -6.76994 | 4726 ft | 232 kts | 58° |
| 2026-05-08 15:03 | 53.34519 | -6.74743 | 4390 ft | 230 kts | 58° |
| 2026-05-08 15:03 | 53.35396 | -6.72515 | 4049 ft | 228 kts | 56° |
| 2026-05-08 15:03 | 53.36496 | -6.70633 | 3715 ft | 226 kts | 36° |